createdAt,value
2023-02-11T00:01:33.678Z,103500.09
2023-02-11T00:04:01.002Z,103527.13
2023-02-11T00:06:29.897Z,103512.06
2023-02-11T00:08:58.676Z,103470.44
2023-02-11T00:11:30.437Z,103489.03
2023-02-11T00:14:00.354Z,103469.72
2023-02-11T00:16:32.472Z,103457.47
2023-02-11T00:19:01.542Z,103416.94
2023-02-11T00:21:28.700Z,103468.06
2023-02-11T00:23:57.326Z,103472.59
2023-02-11T00:26:30.914Z,103511.34
2023-02-11T00:28:57.656Z,103489.50
2023-02-11T00:31:25.715Z,103492.47
2023-02-11T00:33:52.961Z,103475.81
2023-02-11T00:36:25.674Z,103521.66
2023-02-11T00:38:53.695Z,103519.09
2023-02-11T00:41:21.376Z,103532.38
2023-02-11T00:43:48.237Z,103521.91
2023-02-11T00:46:15.978Z,103492.84
2023-02-11T00:48:42.960Z,103487.69
2023-02-11T00:51:10.162Z,103492.19
2023-02-11T00:53:37.085Z,103488.66
2023-02-11T00:56:04.472Z,103525.97
2023-02-11T00:58:31.711Z,103500.53
2023-02-11T01:00:59.012Z,103487.47
2023-02-11T01:03:26.098Z,103460.38
2023-02-11T01:05:53.053Z,103492.00
2023-02-11T01:08:20.147Z,103492.84
2023-02-11T01:10:57.741Z,103491.25
2023-02-11T01:13:25.362Z,103538.94
2023-02-11T01:15:52.644Z,103465.19
2023-02-11T01:18:19.947Z,103506.00
2023-02-11T01:20:54.222Z,103516.63
2023-02-11T01:23:21.674Z,103439.38
2023-02-11T01:25:48.992Z,103462.31
2023-02-11T01:28:20.240Z,103521.34
2023-02-11T01:30:47.357Z,103463.44
2023-02-11T01:33:14.282Z,103494.25
2023-02-11T01:35:41.847Z,103489.97
2023-02-11T01:38:14.706Z,103445.25
2023-02-11T01:40:47.783Z,103490.34
2023-02-11T01:43:14.463Z,103485.94
2023-02-11T01:45:47.533Z,103518.63
2023-02-11T01:48:35.741Z,103497.50
2023-02-11T01:51:14.230Z,103524.88
2023-02-11T01:54:00.678Z,103488.78
2023-02-11T01:56:47.605Z,103489.88
2023-02-11T01:59:21.526Z,103477.72
2023-02-11T02:01:53.246Z,103481.31
2023-02-11T02:04:21.008Z,103481.50
2023-02-11T02:06:56.110Z,103469.94
2023-02-11T02:09:28.872Z,103457.56
2023-02-11T02:11:55.738Z,103513.16
2023-02-11T02:14:22.304Z,103431.44
2023-02-11T02:16:49.174Z,103461.38
2023-02-11T02:19:36.625Z,103508.06
2023-02-11T02:22:15.007Z,103474.66
2023-02-11T02:24:47.802Z,103504.78
2023-02-11T02:27:58.575Z,103503.09
2023-02-11T02:30:54.586Z,103480.22
2023-02-11T02:33:53.427Z,103503.94
2023-02-11T02:36:47.863Z,103501.31
2023-02-11T02:39:31.921Z,103447.97
2023-02-11T02:42:03.268Z,103429.41
2023-02-11T02:44:32.815Z,103441.78
2023-02-11T02:47:07.249Z,103455.84
2023-02-11T02:49:36.528Z,103445.44
2023-02-11T02:52:24.669Z,103419.81
2023-02-11T02:55:11.503Z,103478.03
2023-02-11T02:58:10.933Z,103462.22
2023-02-11T03:00:55.226Z,103426.31
2023-02-11T03:03:54.177Z,103453.66
2023-02-11T03:06:34.711Z,103431.56
2023-02-11T03:09:15.124Z,103392.78
2023-02-11T03:11:43.294Z,103477.28
2023-02-11T03:14:16.194Z,103416.69
2023-02-11T03:16:49.016Z,103434.16
2023-02-11T03:19:35.622Z,103480.72
2023-02-11T03:22:27.743Z,103390.88
2023-02-11T03:24:56.617Z,103399.59
2023-02-11T03:27:58.082Z,103420.84
2023-02-11T03:30:41.175Z,103433.13
2023-02-11T03:33:20.482Z,103479.91
2023-02-11T03:36:02.480Z,103426.22
2023-02-11T03:38:43.501Z,103454.25
2023-02-11T03:41:12.813Z,103441.97
2023-02-11T03:43:45.138Z,103471.16
2023-02-11T03:46:14.748Z,103479.03
2023-02-11T03:48:46.019Z,103429.69
2023-02-11T03:51:14.208Z,103463.28
2023-02-11T03:53:44.858Z,103419.19
2023-02-11T03:56:17.873Z,103482.63
2023-02-11T03:58:46.147Z,103456.31
2023-02-11T04:01:13.023Z,103449.41
2023-02-11T04:03:40.152Z,103428.28
2023-02-11T04:06:07.400Z,103449.25
2023-02-11T04:08:34.055Z,103440.53
2023-02-11T04:11:03.213Z,103408.78
2023-02-11T04:13:30.933Z,103432.72
2023-02-11T04:15:59.892Z,103390.41
2023-02-11T04:18:31.097Z,103426.38
2023-02-11T04:20:58.065Z,103468.53
2023-02-11T04:23:24.679Z,103435.91
2023-02-11T04:25:51.468Z,103446.31
2023-02-11T04:28:18.475Z,103419.03
2023-02-11T04:30:45.185Z,103473.59
2023-02-11T04:33:11.822Z,103433.03
2023-02-11T04:35:38.496Z,103438.31
2023-02-11T04:38:05.336Z,103420.63
2023-02-11T04:40:31.977Z,103469.03
2023-02-11T04:42:58.603Z,103445.38
2023-02-11T04:45:25.242Z,103462.94
2023-02-11T04:47:51.873Z,103424.16
2023-02-11T04:50:18.654Z,103441.69
2023-02-11T04:52:45.509Z,103424.88
2023-02-11T04:55:12.330Z,103470.63
2023-02-11T04:57:39.097Z,103457.38
2023-02-11T05:00:06.907Z,103501.28
2023-02-11T05:02:33.491Z,103465.09
2023-02-11T05:05:00.146Z,103479.13
2023-02-11T05:07:26.830Z,103469.53
2023-02-11T05:09:53.751Z,103447.47
2023-02-11T05:12:20.307Z,103482.75
2023-02-11T05:14:46.935Z,103454.47
2023-02-11T05:17:13.544Z,103458.84
2023-02-11T05:19:42.120Z,103503.75
2023-02-11T05:22:08.997Z,103498.50
2023-02-11T05:24:35.594Z,103479.78
2023-02-11T05:27:02.348Z,103481.50
2023-02-11T05:29:29.621Z,103503.50
2023-02-11T05:31:56.278Z,103470.94
2023-02-11T05:34:22.903Z,103441.81
2023-02-11T05:36:49.467Z,103482.25
2023-02-11T05:39:16.068Z,103476.13
2023-02-11T05:41:42.930Z,103496.38
2023-02-11T05:44:10.209Z,103482.41
2023-02-11T05:46:36.906Z,103449.06
2023-02-11T05:49:04.188Z,103505.31
2023-02-11T05:51:30.703Z,103470.09
2023-02-11T05:53:57.281Z,103508.78
2023-02-11T05:56:24.049Z,103485.84
2023-02-11T05:58:50.760Z,103492.09
2023-02-11T06:01:17.614Z,103481.50
2023-02-11T06:03:44.317Z,103513.16
2023-02-11T06:06:13.973Z,103467.31
2023-02-11T06:08:41.005Z,103467.31
2023-02-11T06:11:07.896Z,103480.47
2023-02-11T06:13:35.119Z,103498.03
2023-02-11T06:16:05.020Z,103444.41
2023-02-11T06:18:37.881Z,103444.38
2023-02-11T06:21:09.335Z,103466.41
2023-02-11T06:23:36.232Z,103493.56
2023-02-11T06:26:05.282Z,103468.13
2023-02-11T06:28:33.992Z,103493.66
2023-02-11T06:31:12.172Z,103441.53
2023-02-11T06:33:45.306Z,103493.56
2023-02-11T06:36:19.720Z,103492.59
2023-02-11T06:38:47.316Z,103492.50
2023-02-11T06:41:20.513Z,103488.06
2023-02-11T06:43:50.226Z,103468.81
2023-02-11T06:46:16.887Z,103468.81
2023-02-11T06:48:44.937Z,103472.34
2023-02-11T06:51:13.714Z,103484.59
2023-02-11T06:53:52.096Z,103500.38
2023-02-11T06:56:22.006Z,103452.91
2023-02-11T06:58:58.128Z,103517.25
2023-02-11T07:01:26.504Z,103518.16
2023-02-11T07:03:53.348Z,103465.22
2023-02-11T07:06:28.134Z,103482.88
2023-02-11T07:09:06.528Z,103472.28
2023-02-11T07:11:51.438Z,103475.63
2023-02-11T07:14:18.177Z,103462.28
2023-02-11T07:16:56.099Z,103464.97
2023-02-11T07:19:24.111Z,103445.69
2023-02-11T07:21:50.958Z,103501.78
2023-02-11T07:24:17.642Z,103520.19
2023-02-11T07:26:49.937Z,103461.91
2023-02-11T07:29:25.538Z,103467.25
2023-02-11T07:32:07.886Z,103506.75
2023-02-11T07:34:37.046Z,103490.06
2023-02-11T07:37:07.624Z,103518.06
2023-02-11T07:39:34.427Z,103510.91
2023-02-11T07:42:01.386Z,103509.16
2023-02-11T07:44:34.611Z,103490.63
2023-02-11T07:47:10.334Z,103474.78
2023-02-11T07:49:50.147Z,103517.06
2023-02-11T07:52:16.796Z,103530.16
2023-02-11T07:54:46.942Z,103543.53
2023-02-11T07:57:13.771Z,103522.38
2023-02-11T07:59:40.384Z,103532.13
2023-02-11T08:02:07.508Z,103524.28
2023-02-11T08:04:36.779Z,103561.28
2023-02-11T08:07:10.687Z,103543.75
2023-02-11T08:09:40.046Z,103517.38
2023-02-11T08:12:06.990Z,103503.31
2023-02-11T08:14:39.097Z,103492.03
2023-02-11T08:17:07.166Z,103464.88
2023-02-11T08:19:38.765Z,103501.97
2023-02-11T08:22:05.903Z,103532.00
2023-02-11T08:24:40.417Z,103533.75
2023-02-11T08:27:08.612Z,103510.94
2023-02-11T08:29:41.979Z,103524.22
2023-02-11T08:32:08.827Z,103510.34
2023-02-11T08:34:38.453Z,103552.84
2023-02-11T08:37:08.513Z,103458.75
2023-02-11T08:39:35.253Z,103555.53
2023-02-11T08:42:05.319Z,103532.78
2023-02-11T08:44:32.030Z,103508.22
2023-02-11T08:47:18.208Z,103506.53
2023-02-11T08:49:44.913Z,103499.56
2023-02-11T08:52:16.632Z,103579.63
2023-02-11T08:54:43.285Z,103545.41
2023-02-11T08:57:33.878Z,103572.78
2023-02-11T09:02:52.110Z,103543.81
2023-02-11T09:05:33.178Z,103535.16
2023-02-11T09:08:06.993Z,103529.00
2023-02-11T09:10:49.421Z,103501.78
2023-02-11T09:13:17.029Z,103561.84
2023-02-11T09:15:46.917Z,103550.53
2023-02-11T09:18:22.938Z,103530.25
2023-02-11T09:20:50.255Z,103547.09
2023-02-11T09:23:24.954Z,103560.13
2023-02-11T09:25:53.846Z,103558.38
2023-02-11T09:28:29.496Z,103602.47
2023-02-11T09:30:56.277Z,103526.97
2023-02-11T09:33:29.012Z,103502.28
2023-02-11T09:36:05.353Z,103501.50
2023-02-11T09:38:43.125Z,103465.53
2023-02-11T09:41:47.968Z,103553.66
2023-02-11T09:44:29.794Z,103572.22
2023-02-11T09:47:00.284Z,103558.16
2023-02-11T09:49:43.184Z,103527.47
2023-02-11T09:52:48.960Z,103585.75
2023-02-11T09:55:32.241Z,103586.75
2023-02-11T09:57:58.978Z,103506.75
2023-02-11T10:00:53.611Z,103514.63
2023-02-11T10:03:30.882Z,103593.88
2023-02-11T10:06:05.103Z,103596.59
2023-02-11T10:08:46.568Z,103584.44
2023-02-11T10:11:52.467Z,103589.78
2023-02-11T10:14:45.338Z,103567.81
2023-02-11T10:17:19.217Z,103539.75
2023-02-11T10:20:04.519Z,103521.28
2023-02-11T10:22:40.873Z,103526.63
2023-02-11T10:25:38.892Z,103568.91
2023-02-11T10:29:01.544Z,103575.28
2023-02-11T10:32:00.284Z,103534.88
2023-02-11T10:34:47.744Z,103541.16
2023-02-11T10:37:20.870Z,103519.22
2023-02-11T10:39:53.279Z,103542.22
2023-02-11T10:42:19.973Z,103564.31
2023-02-11T10:45:32.429Z,103562.59
2023-02-11T10:48:02.188Z,103537.22
2023-02-11T10:50:35.328Z,103535.59
2023-02-11T10:53:27.608Z,103618.38
2023-02-11T10:56:00.144Z,103571.78
2023-02-11T10:58:54.458Z,103578.81
2023-02-11T11:01:48.584Z,103550.69
2023-02-11T11:04:30.718Z,103622.94
2023-02-11T11:07:10.289Z,103589.50
2023-02-11T11:10:21.507Z,103508.75
2023-02-11T11:12:53.340Z,103512.19
2023-02-11T11:18:23.467Z,103571.47
2023-02-11T11:21:49.035Z,103609.34
2023-02-11T11:24:35.881Z,103541.69
2023-02-11T11:27:32.794Z,103579.63
2023-02-11T11:30:11.859Z,103577.91
2023-02-11T11:32:45.003Z,103543.69
2023-02-11T11:35:41.520Z,103527.88
2023-02-11T11:41:47.022Z,103526.25
2023-02-11T11:44:40.082Z,103611.53
2023-02-11T11:47:13.590Z,103606.31
2023-02-11T11:50:30.168Z,103514.91
2023-02-11T11:58:56.981Z,103515.06
2023-02-11T12:01:20.080Z,103594.31
2023-02-11T12:04:10.964Z,103603.00
2023-02-11T12:06:54.028Z,103547.72
2023-02-11T12:10:17.930Z,103573.19
2023-02-11T12:13:30.077Z,103599.50
2023-02-11T12:17:13.740Z,103598.56
2023-02-11T12:20:50.359Z,103507.91
2023-02-11T12:23:37.105Z,103567.53
2023-02-11T12:26:21.769Z,103553.44
2023-02-11T12:29:39.955Z,103609.59
2023-02-11T12:32:30.381Z,103602.63
2023-02-11T12:35:30.660Z,103586.03
2023-02-11T12:38:30.755Z,103597.34
2023-02-11T12:41:12.386Z,103559.59
2023-02-11T12:44:04.867Z,103486.75
2023-02-11T12:47:17.898Z,103539.53
2023-02-11T12:50:53.714Z,103558.94
2023-02-11T12:55:28.273Z,103599.22
2023-02-11T12:57:05.519Z,103571.06
2023-02-11T12:59:38.525Z,103592.13
2023-02-11T13:02:22.019Z,103517.34
2023-02-11T13:05:01.049Z,103504.03
2023-02-11T13:11:14.373Z,103528.78
2023-02-11T13:13:55.770Z,103529.56
2023-02-11T13:16:43.925Z,103586.59
2023-02-11T13:22:33.602Z,103514.47
2023-02-11T13:25:29.787Z,103555.81
2023-02-11T13:28:23.728Z,103557.63
2023-02-11T13:33:49.944Z,103540.97
2023-02-11T13:36:22.076Z,103501.44
2023-02-11T13:39:08.070Z,103511.16
2023-02-11T13:41:37.302Z,103572.78
2023-02-11T13:44:25.186Z,103571.97
2023-02-11T13:46:57.415Z,103558.75
2023-02-11T13:49:53.545Z,103549.91
2023-02-11T13:52:40.000Z,103488.25
2023-02-11T13:55:21.685Z,103578.84
2023-02-11T13:58:19.124Z,103570.06
2023-02-11T14:07:52.589Z,103526.03
2023-02-11T14:17:07.197Z,103570.72
2023-02-11T14:20:37.291Z,103564.66
2023-02-11T14:30:38.921Z,103560.16
2023-02-11T14:33:55.295Z,103495.97
2023-02-11T14:36:56.826Z,103561.84
2023-02-11T14:39:52.003Z,103555.75
2023-02-11T14:42:27.532Z,103528.31
2023-02-11T14:45:08.327Z,103463.41
2023-02-11T14:47:45.913Z,103474.06
2023-02-11T14:50:41.671Z,103495.94
2023-02-11T14:53:37.692Z,103488.13
2023-02-11T15:53:49.504Z,103567.59
2023-02-11T15:57:01.312Z,103476.84
2023-02-11T16:31:21.625Z,103501.03
2023-02-11T16:33:48.454Z,103505.41
2023-02-11T16:36:37.402Z,103503.66
2023-02-11T16:44:08.592Z,103478.16
2023-02-11T16:46:42.088Z,103515.84
2023-02-11T16:49:31.413Z,103591.28
2023-02-11T16:52:24.134Z,103578.19
2023-02-11T16:55:21.913Z,103585.13
2023-02-11T16:58:26.203Z,103493.41
2023-02-11T17:01:07.391Z,103548.78
2023-02-11T17:03:37.712Z,103533.81
2023-02-11T17:06:16.128Z,103570.63
2023-02-11T17:08:46.231Z,103512.53
2023-02-11T17:11:18.916Z,103526.50
2023-02-11T17:14:02.300Z,103506.22
2023-02-11T17:16:31.647Z,103536.06
2023-02-11T17:18:58.611Z,103613.41
2023-02-11T17:25:11.343Z,103594.09
2023-02-11T17:27:51.859Z,103549.06
2023-02-11T17:30:23.039Z,103553.25
2023-02-11T17:32:51.119Z,103566.41
2023-02-11T17:36:06.006Z,103564.56
2023-02-11T17:38:42.420Z,103498.50
2023-02-11T17:41:34.080Z,103547.72
2023-02-11T17:44:10.424Z,103589.03
2023-02-11T17:46:44.868Z,103567.88
2023-02-11T17:49:13.870Z,103613.66
2023-02-11T17:52:39.775Z,103606.63
2023-02-11T17:59:11.999Z,103568.63
2023-02-11T18:01:47.977Z,103560.72
2023-02-11T18:05:05.265Z,103526.28
2023-02-11T18:08:21.216Z,103641.47
2023-02-11T18:10:52.678Z,103530.56
2023-02-11T18:13:41.354Z,103534.66
2023-02-11T18:16:22.059Z,103606.00
2023-02-11T18:19:21.237Z,103610.44
2023-02-11T18:28:53.856Z,103626.84
2023-02-11T18:31:24.386Z,103617.97
2023-02-11T18:37:11.879Z,103599.53
2023-02-11T18:39:54.885Z,103584.59
2023-02-11T18:42:27.340Z,103594.22
2023-02-11T18:53:21.366Z,103594.78
2023-02-11T18:55:54.755Z,103594.88
2023-02-11T18:55:55.618Z,103625.59
2023-02-11T18:58:52.223Z,103573.47
2023-02-11T19:04:28.405Z,103603.53
2023-02-11T19:10:20.298Z,103541.91
2023-02-11T19:13:24.368Z,103574.50
2023-02-11T19:15:51.849Z,103602.69
2023-02-11T19:18:19.381Z,103599.97
2023-02-11T19:20:53.427Z,103558.44
2023-02-11T19:23:36.669Z,103628.03
2023-02-11T19:26:07.079Z,103664.13
2023-02-11T19:28:37.565Z,103596.22
2023-02-11T19:31:33.051Z,103622.69
2023-02-11T19:34:04.001Z,103636.75
2023-02-11T19:36:37.061Z,103611.84
2023-02-11T19:39:12.177Z,103663.03
2023-02-11T19:42:08.084Z,103663.03
2023-02-11T19:45:17.540Z,103658.59
2023-02-11T19:47:51.962Z,103628.41
2023-02-11T19:50:31.173Z,103625.84
2023-02-11T19:53:05.741Z,103610.00
2023-02-11T19:55:42.018Z,103614.34
2023-02-11T19:58:13.191Z,103638.84
2023-02-11T20:01:26.595Z,103595.59
2023-02-11T20:03:57.851Z,103641.38
2023-02-11T20:06:29.503Z,103566.41
2023-02-11T20:08:59.096Z,103623.72
2023-02-11T20:11:28.537Z,103575.22
2023-02-11T20:13:58.644Z,103611.22
2023-02-11T20:16:49.141Z,103633.13
2023-02-11T20:19:18.619Z,103678.28
2023-02-11T20:21:47.744Z,103636.84
2023-02-11T20:24:29.476Z,103639.50
2023-02-11T20:27:11.952Z,103620.00
2023-02-11T20:29:40.367Z,103687.84
2023-02-11T20:32:22.515Z,103623.38
2023-02-11T20:34:52.136Z,103617.31
2023-02-11T20:37:22.416Z,103651.59
2023-02-11T20:40:28.256Z,103653.44
2023-02-11T20:43:05.415Z,103644.66
2023-02-11T20:46:08.660Z,103627.84
2023-02-11T20:48:43.846Z,103610.16
2023-02-11T20:51:14.289Z,103656.91
2023-02-11T20:53:50.105Z,103652.53
2023-02-11T20:56:20.160Z,103691.25
2023-02-11T20:58:52.783Z,103623.31
2023-02-11T21:01:35.536Z,103581.94
2023-02-11T21:04:24.258Z,103573.19
2023-02-11T21:07:13.001Z,103629.47
2023-02-11T21:09:42.957Z,103574.75
2023-02-11T21:12:12.036Z,103590.69
2023-02-11T21:14:44.175Z,103658.63
2023-02-11T21:20:44.550Z,103578.38
2023-02-11T21:23:40.554Z,103617.13
2023-02-11T21:26:21.972Z,103625.00
2023-02-11T21:31:40.250Z,103609.94
2023-02-11T21:34:17.866Z,103621.41
2023-02-11T21:36:45.364Z,103612.56
2023-02-11T21:39:15.633Z,103607.38
2023-02-11T21:41:46.387Z,103613.41
2023-02-11T21:44:16.194Z,103593.97
2023-02-11T21:46:47.093Z,103612.34
2023-02-11T21:49:16.970Z,103681.09
2023-02-11T21:51:51.153Z,103614.84
2023-02-11T21:54:22.333Z,103640.53
2023-02-11T21:56:54.786Z,103614.78
2023-02-11T21:59:32.416Z,103624.41
2023-02-11T22:02:03.587Z,103594.69
2023-02-11T22:04:35.420Z,103645.75
2023-02-11T22:10:13.881Z,103596.19
2023-02-11T22:12:46.330Z,103610.25
2023-02-11T22:15:13.474Z,103615.50
2023-02-11T22:17:45.874Z,103626.97
2023-02-11T22:20:12.824Z,103641.88
2023-02-11T22:23:02.386Z,103652.53
2023-02-11T22:25:29.204Z,103597.03
2023-02-11T22:27:55.854Z,103656.09
2023-02-11T22:30:36.301Z,103633.00
2023-02-11T22:33:05.713Z,103663.84
2023-02-11T22:35:34.746Z,103647.09
2023-02-11T22:38:06.524Z,103656.94
2023-02-11T22:40:35.501Z,103579.34
2023-02-11T22:43:20.727Z,103636.50
2023-02-11T22:45:50.598Z,103690.31
2023-02-11T22:48:29.001Z,103638.44
2023-02-11T22:51:38.420Z,103585.56
2023-02-11T22:54:35.488Z,103580.22
2023-02-11T22:57:22.549Z,103590.84
2023-02-11T23:00:02.561Z,103617.19
2023-02-11T23:02:29.415Z,103619.06
2023-02-11T23:04:59.860Z,103587.31
2023-02-11T23:08:09.929Z,103670.94
2023-02-11T23:10:39.325Z,103623.25
2023-02-11T23:13:17.731Z,103643.53
2023-02-11T23:15:46.016Z,103652.31
2023-02-11T23:18:15.871Z,103638.06
2023-02-11T23:23:36.949Z,103583.28
2023-02-11T23:26:12.491Z,103659.03
2023-02-11T23:28:45.615Z,103602.75
2023-02-11T23:31:25.564Z,103621.19
2023-02-11T23:33:53.235Z,103598.88
2023-02-11T23:36:23.854Z,103670.31
2023-02-11T23:38:51.671Z,103669.31
2023-02-11T23:41:19.309Z,103652.53
2023-02-11T23:43:53.361Z,103610.13
2023-02-11T23:46:22.202Z,103675.41
2023-02-11T23:49:15.763Z,103632.09
2023-02-11T23:51:42.514Z,103636.53
2023-02-11T23:54:13.754Z,103655.13
2023-02-11T23:56:42.535Z,103716.84
2023-02-11T23:59:09.585Z,103646.25
